メインページ
METAR-TAF:

METAR-TAF

空港 :

ホセ・マルティ国際空港

ハバナ, キューバ

緯度: 22-59N, 経度: 082-24W, 海抜: 59m

現時点の気象観測

当レポートは23分前の10:55(UTC)に作成
変向風 2kt
気温 24°C
湿度 94%
気圧 1016 hPa
視程: 9000m
高度3000ftの雲はほとんどない

METAR: MUHA 141055Z VRB02KT 9000 FEW030 24/23 Q1016

時間: 06:18 (11:18 UTC)

予報

当レポートは6時間18分前の05:00(UTC)に作成
予報は14日の 06時(UTC)から 15日の 06時(UTC)まで有効
変向風 3kt
視程: 9000m
高度3000ftの雲はほとんどない
14日の 09時(UTC)から 14日の 12時(UTC)まで一時的に
視程: 4000m
14日の 14時(UTC)から 14日の 16時(UTC)まで徐々に
の風 10kt
14日の 19時(UTC)から 15日の 00時(UTC)まで一時的に
変向風 10kt
視程: 5000m
高度2000ftの雲はほとんどない, 積乱雲.
高度3000ftの千切れ雲あり
にわか雨
15日の 01時(UTC)から 15日の 03時(UTC)まで徐々に
変向風 3kt

TAF: MUHA 140500Z 1406/1506 VRB03KT 9000 FEW030 TEMPO 1409/1412 4000 BR BECMG 1414/1416 10010KT TEMPO 1419/1500 VRB10KT 5000 SHRA FEW020CB BKN030 BECMG 1501/1503 VRB03KT

4,000以上の空港の気象観測と天気予報(METAR報とTAF報)

利用可能な観測所は地図上に黄色い丸と赤い丸で示す。

丸の上にカーソルを重ねると観測所名を参照できる。

次にクリックすると気象観測と天気予報を参照できる。

マップの切り替え:黒色「×」印の緑ボタンをクリックして拡大、「-」印の緑ボタンをクリックして縮小、緑色の三角印をクリックして隣りの地図に切り替え


METAR-TAF: